EDMA/AGB METAR and TAF weather

Enter ICAO airport designator
Station Type Date Time Source
EDMA METAR 2023/01/30 10:50 UTC NOAA

EDMA 301050Z 25019G29KT 9999 BKN024 02/M02 Q1019


Station Type Date Time Source
EDMA Decoded METAR 2023/01/30 10:50 UTC NOAA

Augsburg, Germany (EDMA) 48-26N 010-56E 463M
Jan 30, 2023 - 05:50 AM EST / 2023.01.30 1050 UTC
Wind: from the WSW (250 degrees) at 22 MPH (19 KT) gusting to 33 MPH (29 KT):0
Visibility: greater than 7 mile(s):0
Sky conditions: mostly cloudy
Temperature: 35 F (2 C)
Windchill: 23 F (-5 C):1
Dew Point: 28 F (-2 C)
Relative Humidity: 74%
Pressure (altimeter): 30.09 in. Hg (1019 hPa)
ob: EDMA 301050Z 25019G29KT 9999 BKN024 02/M02 Q1019
cycle: 11

Station Type Date Time Source
EDMA TAF 2010/02/22 13:50 UTC NOAA

METAR EDMA 221350Z 23006KT CAVOK 10/02 Q0996

Example: see airport list